sensor_id;sensor_type;location;lat;lon;timestamp;pressure;altitude;pressure_sealevel;temperature;humidity
61506;BME280;47366;51.916;4.574;2022-10-16T00:01:30;101017.53;;;13.57;79.53
61506;BME280;47366;51.916;4.574;2022-10-16T00:03:58;101000.56;;;13.54;79.73
61506;BME280;47366;51.916;4.574;2022-10-16T00:06:24;101013.09;;;13.56;79.61
61506;BME280;47366;51.916;4.574;2022-10-16T00:08:50;101015.03;;;13.54;78.33
61506;BME280;47366;51.916;4.574;2022-10-16T00:11:21;101019.38;;;13.57;79.43
61506;BME280;47366;51.916;4.574;2022-10-16T00:13:49;101021.44;;;13.53;79.59
61506;BME280;47366;51.916;4.574;2022-10-16T00:16:16;101012.41;;;13.53;79.20
61506;BME280;47366;51.916;4.574;2022-10-16T00:18:42;101021.44;;;13.53;79.85
61506;BME280;47366;51.916;4.574;2022-10-16T00:21:13;101028.50;;;13.56;80.28
61506;BME280;47366;51.916;4.574;2022-10-16T00:23:39;101036.03;;;13.52;79.40
61506;BME280;47366;51.916;4.574;2022-10-16T00:26:08;101040.41;;;13.55;79.47
61506;BME280;47366;51.916;4.574;2022-10-16T00:28:34;101032.00;;;13.58;79.74
61506;BME280;47366;51.916;4.574;2022-10-16T00:31:09;101034.41;;;13.63;80.02
61506;BME280;47366;51.916;4.574;2022-10-16T00:33:36;101016.34;;;13.62;79.82
61506;BME280;47366;51.916;4.574;2022-10-16T00:36:03;101028.00;;;13.64;80.05
61506;BME280;47366;51.916;4.574;2022-10-16T00:38:28;101024.28;;;13.65;80.00
61506;BME280;47366;51.916;4.574;2022-10-16T00:40:54;101024.19;;;13.66;80.23
61506;BME280;47366;51.916;4.574;2022-10-16T00:46:07;101039.50;;;13.67;80.23
61506;BME280;47366;51.916;4.574;2022-10-16T00:48:34;101039.63;;;13.66;80.26
61506;BME280;47366;51.916;4.574;2022-10-16T00:50:59;101039.63;;;13.66;80.28
61506;BME280;47366;51.916;4.574;2022-10-16T00:53:25;101020.69;;;13.64;80.77
61506;BME280;47366;51.916;4.574;2022-10-16T00:55:51;101013.63;;;13.62;81.55
61506;BME280;47366;51.916;4.574;2022-10-16T00:58:17;101008.81;;;13.52;82.92
61506;BME280;47366;51.916;4.574;2022-10-16T01:00:42;100973.00;;;13.46;83.70
61506;BME280;47366;51.916;4.574;2022-10-16T01:05:59;100979.34;;;13.33;85.16
61506;BME280;47366;51.916;4.574;2022-10-16T01:08:34;100993.03;;;13.32;84.90
61506;BME280;47366;51.916;4.574;2022-10-16T01:11:17;100999.56;;;13.29;84.95
61506;BME280;47366;51.916;4.574;2022-10-16T01:13:48;101001.44;;;13.29;84.96
61506;BME280;47366;51.916;4.574;2022-10-16T01:16:28;101013.06;;;13.31;85.11
61506;BME280;47366;51.916;4.574;2022-10-16T01:19:04;101015.03;;;13.29;85.72
61506;BME280;47366;51.916;4.574;2022-10-16T01:21:40;101007.84;;;13.28;85.64
61506;BME280;47366;51.916;4.574;2022-10-16T01:27:04;101021.63;;;13.25;85.36
61506;BME280;47366;51.916;4.574;2022-10-16T01:35:14;101016.63;;;13.18;86.03
61506;BME280;47366;51.916;4.574;2022-10-16T01:38:00;101013.38;;;13.13;85.75
61506;BME280;47366;51.916;4.574;2022-10-16T01:40:29;101017.81;;;13.14;85.85
61506;BME280;47366;51.916;4.574;2022-10-16T01:43:24;101024.97;;;13.15;85.78
61506;BME280;47366;51.916;4.574;2022-10-16T01:45:52;101024.34;;;13.12;85.98
61506;BME280;47366;51.916;4.574;2022-10-16T01:48:19;101020.84;;;13.10;86.22
61506;BME280;47366;51.916;4.574;2022-10-16T01:50:54;101023.66;;;13.08;86.27
61506;BME280;47366;51.916;4.574;2022-10-16T01:53:21;101025.41;;;13.09;86.08
61506;BME280;47366;51.916;4.574;2022-10-16T01:55:49;101030.88;;;13.09;85.89
61506;BME280;47366;51.916;4.574;2022-10-16T01:58:17;101021.06;;;13.07;85.92
61506;BME280;47366;51.916;4.574;2022-10-16T02:00:44;101024.56;;;13.09;85.90
61506;BME280;47366;51.916;4.574;2022-10-16T02:03:13;101029.09;;;13.08;85.89
61506;BME280;47366;51.916;4.574;2022-10-16T02:05:51;101037.06;;;13.11;85.97
61506;BME280;47366;51.916;4.574;2022-10-16T02:08:18;101026.38;;;13.08;85.89
61506;BME280;47366;51.916;4.574;2022-10-16T02:10:44;101033.69;;;13.08;86.18
61506;BME280;47366;51.916;4.574;2022-10-16T02:13:30;101033.69;;;13.08;86.20
61506;BME280;47366;51.916;4.574;2022-10-16T02:15:56;101035.44;;;13.09;86.38
61506;BME280;47366;51.916;4.574;2022-10-16T02:18:22;101029.09;;;13.08;85.86
61506;BME280;47366;51.916;4.574;2022-10-16T02:20:53;101021.16;;;13.05;86.38
61506;BME280;47366;51.916;4.574;2022-10-16T02:23:37;101033.69;;;13.08;86.09
61506;BME280;47366;51.916;4.574;2022-10-16T02:26:07;101035.44;;;13.09;86.02
61506;BME280;47366;51.916;4.574;2022-10-16T02:28:43;101040.75;;;13.10;85.97
61506;BME280;47366;51.916;4.574;2022-10-16T02:31:13;101032.72;;;13.09;86.21
61506;BME280;47366;51.916;4.574;2022-10-16T02:33:41;101029.88;;;13.10;86.55
61506;BME280;47366;51.916;4.574;2022-10-16T02:36:08;101043.38;;;13.12;86.26
61506;BME280;47366;51.916;4.574;2022-10-16T02:38:34;101040.66;;;13.12;86.21
61506;BME280;47366;51.916;4.574;2022-10-16T02:40:59;101039.78;;;13.11;86.22
61506;BME280;47366;51.916;4.574;2022-10-16T02:43:25;101047.09;;;13.11;86.36
61506;BME280;47366;51.916;4.574;2022-10-16T02:45:51;101044.38;;;13.11;86.22
61506;BME280;47366;51.916;4.574;2022-10-16T02:48:16;101042.38;;;13.13;86.53
61506;BME280;47366;51.916;4.574;2022-10-16T02:50:42;101040.66;;;13.12;86.67
61506;BME280;47366;51.916;4.574;2022-10-16T02:53:07;101029.88;;;13.10;86.68
61506;BME280;47366;51.916;4.574;2022-10-16T02:55:32;101025.41;;;13.09;86.58
61506;BME280;47366;51.916;4.574;2022-10-16T02:57:58;101030.97;;;13.08;87.03
61506;BME280;47366;51.916;4.574;2022-10-16T03:00:23;101028.47;;;13.05;86.67
61506;BME280;47366;51.916;4.574;2022-10-16T03:02:49;101031.28;;;13.03;86.80
61506;BME280;47366;51.916;4.574;2022-10-16T03:05:14;101020.53;;;13.02;86.58
61506;BME280;47366;51.916;4.574;2022-10-16T03:07:40;101041.28;;;13.03;86.90
61506;BME280;47366;51.916;4.574;2022-10-16T03:10:06;101041.38;;;13.01;87.16
61506;BME280;47366;51.916;4.574;2022-10-16T03:12:32;101043.22;;;13.01;87.23
61506;BME280;47366;51.916;4.574;2022-10-16T03:14:57;101049.66;;;13.00;87.32
61506;BME280;47366;51.916;4.574;2022-10-16T03:17:23;101051.50;;;12.99;86.98
61506;BME280;47366;51.916;4.574;2022-10-16T03:19:48;101054.25;;;12.99;87.33
61506;BME280;47366;51.916;4.574;2022-10-16T03:22:14;101057.81;;;13.00;87.53
61506;BME280;47366;51.916;4.574;2022-10-16T03:24:39;101058.69;;;13.00;87.44
61506;BME280;47366;51.916;4.574;2022-10-16T03:27:04;101078.50;;;13.02;87.48
61506;BME280;47366;51.916;4.574;2022-10-16T03:29:30;101079.13;;;13.06;87.73
61506;BME280;47366;51.916;4.574;2022-10-16T03:31:57;101079.34;;;13.03;87.55
61506;BME280;47366;51.916;4.574;2022-10-16T03:34:22;101075.56;;;13.05;87.27
61506;BME280;47366;51.916;4.574;2022-10-16T03:36:47;101073.06;;;13.02;87.45
61506;BME280;47366;51.916;4.574;2022-10-16T03:39:13;101070.44;;;13.01;87.32
61506;BME280;47366;51.916;4.574;2022-10-16T03:41:38;101085.78;;;13.02;87.31
61506;BME280;47366;51.916;4.574;2022-10-16T03:44:03;101072.28;;;13.00;87.52
61506;BME280;47366;51.916;4.574;2022-10-16T03:46:29;101088.69;;;12.99;87.72
61506;BME280;47366;51.916;4.574;2022-10-16T03:48:54;101083.47;;;12.95;87.49
61506;BME280;47366;51.916;4.574;2022-10-16T03:51:19;101089.78;;;12.96;87.94
61506;BME280;47366;51.916;4.574;2022-10-16T03:53:45;101095.03;;;12.99;87.49
61506;BME280;47366;51.916;4.574;2022-10-16T03:56:10;101097.84;;;12.98;87.69
61506;BME280;47366;51.916;4.574;2022-10-16T03:58:35;101088.03;;;12.95;87.90
61506;BME280;47366;51.916;4.574;2022-10-16T04:01:01;101098.78;;;12.96;88.03
61506;BME280;47366;51.916;4.574;2022-10-16T04:03:26;101086.28;;;12.94;88.12
61506;BME280;47366;51.916;4.574;2022-10-16T04:05:51;101094.25;;;12.97;88.13
61506;BME280;47366;51.916;4.574;2022-10-16T04:08:17;101104.44;;;12.93;87.92
61506;BME280;47366;51.916;4.574;2022-10-16T04:10:43;101104.56;;;12.92;88.26
61506;BME280;47366;51.916;4.574;2022-10-16T04:13:09;101103.88;;;12.88;88.11
61506;BME280;47366;51.916;4.574;2022-10-16T04:15:34;101104.09;;;12.85;88.78
61506;BME280;47366;51.916;4.574;2022-10-16T04:17:59;101109.31;;;12.88;88.60
61506;BME280;47366;51.916;4.574;2022-10-16T04:20:25;101107.78;;;12.84;88.74
61506;BME280;47366;51.916;4.574;2022-10-16T04:22:50;101113.13;;;12.86;88.70
61506;BME280;47366;51.916;4.574;2022-10-16T04:25:15;101111.41;;;12.85;88.60
61506;BME280;47366;51.916;4.574;2022-10-16T04:27:41;101125.72;;;12.87;88.84
61506;BME280;47366;51.916;4.574;2022-10-16T04:30:07;101128.44;;;12.87;88.60
61506;BME280;47366;51.916;4.574;2022-10-16T04:32:32;101132.06;;;12.87;88.80
61506;BME280;47366;51.916;4.574;2022-10-16T04:34:57;101139.53;;;12.84;88.75
61506;BME280;47366;51.916;4.574;2022-10-16T04:37:26;101148.56;;;12.84;88.63
61506;BME280;47366;51.916;4.574;2022-10-16T04:39:53;101151.50;;;12.81;88.94
61506;BME280;47366;51.916;4.574;2022-10-16T04:42:19;101154.22;;;12.81;88.92
61506;BME280;47366;51.916;4.574;2022-10-16T04:44:44;101146.06;;;12.81;89.25
61506;BME280;47366;51.916;4.574;2022-10-16T04:47:10;101162.28;;;12.83;89.12
61506;BME280;47366;51.916;4.574;2022-10-16T04:49:35;101164.00;;;12.84;89.26
61506;BME280;47366;51.916;4.574;2022-10-16T04:52:00;101164.00;;;12.84;88.90
61506;BME280;47366;51.916;4.574;2022-10-16T04:54:26;101163.06;;;12.85;89.14
61506;BME280;47366;51.916;4.574;2022-10-16T04:56:51;101164.00;;;12.84;88.62
61506;BME280;47366;51.916;4.574;2022-10-16T04:59:18;101178.28;;;12.87;88.81
61506;BME280;47366;51.916;4.574;2022-10-16T05:01:44;101178.38;;;12.86;89.41
61506;BME280;47366;51.916;4.574;2022-10-16T05:04:10;101171.09;;;12.86;89.52
61506;BME280;47366;51.916;4.574;2022-10-16T05:06:36;101178.38;;;12.86;89.93
61506;BME280;47366;51.916;4.574;2022-10-16T05:09:02;101171.94;;;12.87;89.76
61506;BME280;47366;51.916;4.574;2022-10-16T05:11:27;101177.38;;;12.87;89.21
61506;BME280;47366;51.916;4.574;2022-10-16T05:13:53;101184.59;;;12.88;89.10
61506;BME280;47366;51.916;4.574;2022-10-16T05:16:18;101191.75;;;12.89;89.33
61506;BME280;47366;51.916;4.574;2022-10-16T05:18:43;101187.19;;;12.89;89.46
61506;BME280;47366;51.916;4.574;2022-10-16T05:21:09;101195.47;;;12.88;89.70
61506;BME280;47366;51.916;4.574;2022-10-16T05:23:34;101194.69;;;12.86;89.94
61506;BME280;47366;51.916;4.574;2022-10-16T05:25:59;101197.03;;;12.92;89.37
61506;BME280;47366;51.916;4.574;2022-10-16T05:28:26;101195.25;;;12.91;89.39
61506;BME280;47366;51.916;4.574;2022-10-16T05:30:52;101200.59;;;12.92;89.39
61506;BME280;47366;51.916;4.574;2022-10-16T05:33:19;101207.00;;;12.91;89.23
61506;BME280;47366;51.916;4.574;2022-10-16T05:35:45;101200.47;;;12.94;89.40
61506;BME280;47366;51.916;4.574;2022-10-16T05:38:10;101215.06;;;12.93;88.99
61506;BME280;47366;51.916;4.574;2022-10-16T05:40:35;101221.28;;;12.95;89.31
61506;BME280;47366;51.916;4.574;2022-10-16T05:43:01;101226.72;;;12.95;89.52
61506;BME280;47366;51.916;4.574;2022-10-16T05:45:26;101228.56;;;12.94;89.73
61506;BME280;47366;51.916;4.574;2022-10-16T05:47:51;101231.38;;;12.93;89.82
61506;BME280;47366;51.916;4.574;2022-10-16T05:50:17;101229.53;;;12.93;89.52
61506;BME280;47366;51.916;4.574;2022-10-16T05:52:42;101245.75;;;12.95;90.32
61506;BME280;47366;51.916;4.574;2022-10-16T05:55:07;101240.41;;;12.93;90.13
61506;BME280;47366;51.916;4.574;2022-10-16T05:57:33;101248.47;;;12.95;89.79
61506;BME280;47366;51.916;4.574;2022-10-16T05:59:58;101252.25;;;12.92;90.14
61506;BME280;47366;51.916;4.574;2022-10-16T06:02:23;101246.91;;;12.91;90.52
61506;BME280;47366;51.916;4.574;2022-10-16T06:04:49;101252.34;;;12.91;90.54
61506;BME280;47366;51.916;4.574;2022-10-16T06:07:14;101248.84;;;12.89;90.59
61506;BME280;47366;51.916;4.574;2022-10-16T06:09:39;101233.53;;;12.88;90.00
61506;BME280;47366;51.916;4.574;2022-10-16T06:12:05;101248.97;;;12.87;90.07
61506;BME280;47366;51.916;4.574;2022-10-16T06:14:30;101247.22;;;12.86;89.20
61506;BME280;47366;51.916;4.574;2022-10-16T06:16:55;101258.28;;;12.83;89.64
61506;BME280;47366;51.916;4.574;2022-10-16T06:19:21;101253.72;;;12.84;88.94
61506;BME280;47366;51.916;4.574;2022-10-16T06:21:46;101255.56;;;12.83;89.11
61506;BME280;47366;51.916;4.574;2022-10-16T06:24:11;101268.31;;;12.83;89.15
61506;BME280;47366;51.916;4.574;2022-10-16T06:26:37;101277.53;;;12.80;88.95
61506;BME280;47366;51.916;4.574;2022-10-16T06:29:03;101276.53;;;12.81;89.08
61506;BME280;47366;51.916;4.574;2022-10-16T06:31:29;101279.25;;;12.81;89.17
61506;BME280;47366;51.916;4.574;2022-10-16T06:33:56;101282.06;;;12.80;89.58
61506;BME280;47366;51.916;4.574;2022-10-16T06:36:22;101275.69;;;12.81;89.50
61506;BME280;47366;51.916;4.574;2022-10-16T06:38:47;101271.19;;;12.80;89.68
61506;BME280;47366;51.916;4.574;2022-10-16T06:41:16;101276.47;;;12.83;90.09
61506;BME280;47366;51.916;4.574;2022-10-16T06:43:42;101280.03;;;12.83;89.87
61506;BME280;47366;51.916;4.574;2022-10-16T06:46:10;101279.34;;;12.80;90.41
61506;BME280;47366;51.916;4.574;2022-10-16T06:48:36;101286.63;;;12.79;90.86
61506;BME280;47366;51.916;4.574;2022-10-16T06:51:15;101290.22;;;12.80;90.76
61506;BME280;47366;51.916;4.574;2022-10-16T06:53:46;101304.72;;;12.80;90.49
61506;BME280;47366;51.916;4.574;2022-10-16T06:56:25;101303.72;;;12.81;90.52
61506;BME280;47366;51.916;4.574;2022-10-16T06:58:51;101299.16;;;12.82;90.38
61506;BME280;47366;51.916;4.574;2022-10-16T07:01:19;101304.50;;;12.83;90.38
61506;BME280;47366;51.916;4.574;2022-10-16T07:03:46;101314.53;;;12.83;90.47
61506;BME280;47366;51.916;4.574;2022-10-16T07:06:17;101324.13;;;12.88;90.09
61506;BME280;47366;51.916;4.574;2022-10-16T07:08:45;101326.06;;;12.86;90.12
61506;BME280;47366;51.916;4.574;2022-10-16T07:11:15;101337.91;;;12.85;90.13
61506;BME280;47366;51.916;4.574;2022-10-16T07:13:42;101352.47;;;12.84;90.37
61506;BME280;47366;51.916;4.574;2022-10-16T07:16:10;101338.09;;;12.82;90.35
61506;BME280;47366;51.916;4.574;2022-10-16T07:18:36;101346.16;;;12.84;90.97
61506;BME280;47366;51.916;4.574;2022-10-16T07:21:15;101350.66;;;12.85;90.70
61506;BME280;47366;51.916;4.574;2022-10-16T07:23:42;101372.97;;;12.90;90.67
61506;BME280;47366;51.916;4.574;2022-10-16T07:26:08;101363.84;;;12.91;90.52
61506;BME280;47366;51.916;4.574;2022-10-16T07:28:34;101370.06;;;12.93;90.92
61506;BME280;47366;51.916;4.574;2022-10-16T07:31:07;101372.56;;;12.96;90.41
61506;BME280;47366;51.916;4.574;2022-10-16T07:33:34;101386.88;;;13.00;90.35
61506;BME280;47366;51.916;4.574;2022-10-16T07:35:59;101391.31;;;13.01;90.42
61506;BME280;47366;51.916;4.574;2022-10-16T07:38:25;101389.47;;;13.01;90.46
61506;BME280;47366;51.916;4.574;2022-10-16T07:41:04;101392.00;;;13.04;90.32
61506;BME280;47366;51.916;4.574;2022-10-16T07:43:29;101404.41;;;13.08;89.71
61506;BME280;47366;51.916;4.574;2022-10-16T07:45:55;101404.25;;;13.11;89.85
61506;BME280;47366;51.916;4.574;2022-10-16T07:48:21;101398.81;;;13.11;90.16
61506;BME280;47366;51.916;4.574;2022-10-16T07:50:47;101409.41;;;13.16;89.92
61506;BME280;47366;51.916;4.574;2022-10-16T07:53:14;101412.91;;;13.18;89.92
61506;BME280;47366;51.916;4.574;2022-10-16T07:55:39;101418.22;;;13.20;89.59
61506;BME280;47366;51.916;4.574;2022-10-16T07:58:05;101426.09;;;13.24;89.64
61506;BME280;47366;51.916;4.574;2022-10-16T08:00:31;101422.50;;;13.24;89.96
61506;BME280;47366;51.916;4.574;2022-10-16T08:02:58;101425.16;;;13.25;89.53
61506;BME280;47366;51.916;4.574;2022-10-16T08:05:31;101426.84;;;13.28;89.45
61506;BME280;47366;51.916;4.574;2022-10-16T08:07:57;101430.13;;;13.33;89.28
61506;BME280;47366;51.916;4.574;2022-10-16T08:10:24;101440.88;;;13.34;88.97
61506;BME280;47366;51.916;4.574;2022-10-16T08:12:51;101446.03;;;13.39;88.83
61506;BME280;47366;51.916;4.574;2022-10-16T08:15:18;101440.50;;;13.41;89.15
61506;BME280;47366;51.916;4.574;2022-10-16T08:17:43;101446.63;;;13.44;89.13
61506;BME280;47366;51.916;4.574;2022-10-16T08:20:09;101449.16;;;13.47;88.92
61506;BME280;47366;51.916;4.574;2022-10-16T08:22:36;101455.38;;;13.49;89.00
61506;BME280;47366;51.916;4.574;2022-10-16T08:25:02;101458.78;;;13.53;88.72
61506;BME280;47366;51.916;4.574;2022-10-16T08:27:33;101464.69;;;13.59;89.16
61506;BME280;47366;51.916;4.574;2022-10-16T08:29:58;101464.63;;;13.61;88.69
61506;BME280;47366;51.916;4.574;2022-10-16T08:32:24;101463.63;;;13.62;88.41
61506;BME280;47366;51.916;4.574;2022-10-16T08:34:49;101478.50;;;13.71;88.40
61506;BME280;47366;51.916;4.574;2022-10-16T08:37:14;101480.94;;;13.75;88.24
61506;BME280;47366;51.916;4.574;2022-10-16T08:39:39;101477.00;;;13.79;88.34
61506;BME280;47366;51.916;4.574;2022-10-16T08:45:14;101499.84;;;13.91;88.03
61506;BME280;47366;51.916;4.574;2022-10-16T08:47:48;101499.56;;;13.96;87.75
61506;BME280;47366;51.916;4.574;2022-10-16T08:50:24;101500.13;;;14.01;87.71
61506;BME280;47366;51.916;4.574;2022-10-16T08:52:50;101503.22;;;14.09;87.68
61506;BME280;47366;51.916;4.574;2022-10-16T08:55:37;101515.56;;;14.15;87.06
61506;BME280;47366;51.916;4.574;2022-10-16T08:58:11;101516.59;;;14.27;87.23
61506;BME280;47366;51.916;4.574;2022-10-16T09:00:38;101521.44;;;14.36;86.73
61506;BME280;47366;51.916;4.574;2022-10-16T09:05:58;101516.63;;;14.54;86.82
61506;BME280;47366;51.916;4.574;2022-10-16T09:08:46;101520.91;;;14.58;86.15
61506;BME280;47366;51.916;4.574;2022-10-16T09:11:46;101519.75;;;14.75;86.24
61506;BME280;47366;51.916;4.574;2022-10-16T09:17:14;101526.44;;;14.83;85.86
61506;BME280;47366;51.916;4.574;2022-10-16T09:19:53;101517.63;;;14.93;85.68
61506;BME280;47366;51.916;4.574;2022-10-16T09:22:25;101529.22;;;15.09;85.64
61506;BME280;47366;51.916;4.574;2022-10-16T09:24:51;101537.09;;;15.14;85.14
61506;BME280;47366;51.916;4.574;2022-10-16T09:27:17;101531.63;;;15.26;85.03
61506;BME280;47366;51.916;4.574;2022-10-16T09:29:42;101546.94;;;15.42;84.89
61506;BME280;47366;51.916;4.574;2022-10-16T09:32:17;101541.13;;;15.46;84.32
61506;BME280;47366;51.916;4.574;2022-10-16T09:34:54;101541.78;;;15.63;84.19
61506;BME280;47366;51.916;4.574;2022-10-16T09:37:23;101537.88;;;15.80;83.39
61506;BME280;47366;51.916;4.574;2022-10-16T09:39:51;101544.75;;;15.98;82.81
61506;BME280;47366;51.916;4.574;2022-10-16T09:42:35;101548.63;;;16.20;81.30
61506;BME280;47366;51.916;4.574;2022-10-16T09:45:02;101552.84;;;16.37;79.60
61506;BME280;47366;51.916;4.574;2022-10-16T09:47:30;101548.91;;;16.28;80.70
61506;BME280;47366;51.916;4.574;2022-10-16T09:50:02;101550.00;;;16.38;80.00
61506;BME280;47366;51.916;4.574;2022-10-16T09:52:31;101555.00;;;16.68;80.22
61506;BME280;47366;51.916;4.574;2022-10-16T09:55:09;101548.31;;;16.96;79.16
61506;BME280;47366;51.916;4.574;2022-10-16T09:57:37;101540.97;;;16.73;77.94
61506;BME280;47366;51.916;4.574;2022-10-16T10:00:16;101551.72;;;16.63;78.29
61506;BME280;47366;51.916;4.574;2022-10-16T10:02:42;101557.78;;;16.92;78.84
61506;BME280;47366;51.916;4.574;2022-10-16T10:05:19;101554.44;;;17.00;78.35
61506;BME280;47366;51.916;4.574;2022-10-16T10:07:54;101548.53;;;17.29;78.25
61506;BME280;47366;51.916;4.574;2022-10-16T10:10:26;101555.94;;;17.62;77.45
61506;BME280;47366;51.916;4.574;2022-10-16T10:12:53;101555.13;;;17.84;76.67
61506;BME280;47366;51.916;4.574;2022-10-16T10:15:19;101553.00;;;18.10;75.53
61506;BME280;47366;51.916;4.574;2022-10-16T10:17:56;101560.72;;;18.16;74.71
61506;BME280;47366;51.916;4.574;2022-10-16T10:20:26;101564.06;;;18.31;74.52
61506;BME280;47366;51.916;4.574;2022-10-16T10:22:53;101562.47;;;18.17;72.77
61506;BME280;47366;51.916;4.574;2022-10-16T10:25:23;101558.97;;;18.04;75.08
61506;BME280;47366;51.916;4.574;2022-10-16T10:30:50;101573.16;;;18.43;72.56
61506;BME280;47366;51.916;4.574;2022-10-16T10:38:56;101577.19;;;18.71;71.63
61506;BME280;47366;51.916;4.574;2022-10-16T10:46:45;101578.97;;;19.25;70.16
61506;BME280;47366;51.916;4.574;2022-10-16T10:52:36;101590.66;;;19.39;68.71
61506;BME280;47366;51.916;4.574;2022-10-16T10:57:49;101598.56;;;19.53;66.33
61506;BME280;47366;51.916;4.574;2022-10-16T11:00:23;101604.25;;;19.61;67.95
61506;BME280;47366;51.916;4.574;2022-10-16T11:03:13;101600.72;;;19.70;67.94
61506;BME280;47366;51.916;4.574;2022-10-16T11:05:56;101610.16;;;19.57;66.58
61506;BME280;47366;51.916;4.574;2022-10-16T11:08:41;101609.22;;;19.46;63.83
61506;BME280;47366;51.916;4.574;2022-10-16T11:11:30;101618.59;;;19.44;66.81
61506;BME280;47366;51.916;4.574;2022-10-16T11:16:44;101617.38;;;19.37;63.26
61506;BME280;47366;51.916;4.574;2022-10-16T11:21:51;101623.56;;;19.50;63.41
61506;BME280;47366;51.916;4.574;2022-10-16T11:24:24;101627.38;;;19.38;64.10
61506;BME280;47366;51.916;4.574;2022-10-16T11:27:08;101620.81;;;19.29;63.09
61506;BME280;47366;51.916;4.574;2022-10-16T11:29:44;101631.06;;;19.27;64.82
61506;BME280;47366;51.916;4.574;2022-10-16T11:32:25;101635.72;;;19.15;65.28
61506;BME280;47366;51.916;4.574;2022-10-16T11:34:57;101633.97;;;18.82;63.49
61506;BME280;47366;51.916;4.574;2022-10-16T11:37:36;101630.06;;;18.73;64.70
61506;BME280;47366;51.916;4.574;2022-10-16T11:40:16;101625.06;;;18.89;66.05
61506;BME280;47366;51.916;4.574;2022-10-16T11:42:49;101620.66;;;19.09;65.35
61506;BME280;47366;51.916;4.574;2022-10-16T11:45:26;101628.66;;;19.34;65.92
61506;BME280;47366;51.916;4.574;2022-10-16T11:48:00;101633.53;;;19.30;64.45
61506;BME280;47366;51.916;4.574;2022-10-16T11:55:52;101641.03;;;19.49;64.93
61506;BME280;47366;51.916;4.574;2022-10-16T12:03:43;101643.44;;;19.42;56.87
61506;BME280;47366;51.916;4.574;2022-10-16T12:08:51;101651.84;;;19.41;60.37
61506;BME280;47366;51.916;4.574;2022-10-16T12:16:38;101666.66;;;19.49;60.43
61506;BME280;47366;51.916;4.574;2022-10-16T12:19:13;101659.50;;;19.58;61.13
61506;BME280;47366;51.916;4.574;2022-10-16T12:21:39;101663.38;;;19.56;61.59
61506;BME280;47366;51.916;4.574;2022-10-16T12:24:05;101665.25;;;19.55;59.63
61506;BME280;47366;51.916;4.574;2022-10-16T12:26:38;101656.06;;;19.45;59.13
61506;BME280;47366;51.916;4.574;2022-10-16T12:29:48;101678.69;;;19.37;60.21
61506;BME280;47366;51.916;4.574;2022-10-16T12:32:31;101666.69;;;19.17;60.88
61506;BME280;47366;51.916;4.574;2022-10-16T12:34:58;101669.44;;;19.06;62.98
61506;BME280;47366;51.916;4.574;2022-10-16T12:37:26;101659.88;;;18.89;62.28
61506;BME280;47366;51.916;4.574;2022-10-16T12:39:54;101668.25;;;18.87;63.29
61506;BME280;47366;51.916;4.574;2022-10-16T12:42:22;101668.78;;;18.81;63.58
61506;BME280;47366;51.916;4.574;2022-10-16T12:44:48;101675.00;;;18.72;64.36
61506;BME280;47366;51.916;4.574;2022-10-16T12:49:54;101678.00;;;18.46;62.08
61506;BME280;47366;51.916;4.574;2022-10-16T12:54:50;101670.78;;;18.34;64.66
61506;BME280;47366;51.916;4.574;2022-10-16T12:57:26;101678.25;;;18.32;65.25
61506;BME280;47366;51.916;4.574;2022-10-16T13:00:19;101673.03;;;18.29;61.31
61506;BME280;47366;51.916;4.574;2022-10-16T13:05:40;101672.03;;;18.41;63.54
61506;BME280;47366;51.916;4.574;2022-10-16T13:13:55;101690.75;;;18.36;63.14
61506;BME280;47366;51.916;4.574;2022-10-16T13:16:49;101701.59;;;18.27;63.64
61506;BME280;47366;51.916;4.574;2022-10-16T13:19:41;101690.59;;;18.15;63.90
61506;BME280;47366;51.916;4.574;2022-10-16T13:30:16;101700.03;;;17.89;62.62
61506;BME280;47366;51.916;4.574;2022-10-16T13:32:51;101693.09;;;17.72;60.51
61506;BME280;47366;51.916;4.574;2022-10-16T13:35:29;101690.25;;;17.73;61.60
61506;BME280;47366;51.916;4.574;2022-10-16T13:38:13;101694.72;;;17.74;64.59
61506;BME280;47366;51.916;4.574;2022-10-16T13:43:25;101699.44;;;17.72;64.92
61506;BME280;47366;51.916;4.574;2022-10-16T13:46:05;101694.44;;;17.66;64.08
61506;BME280;47366;51.916;4.574;2022-10-16T13:48:32;101698.63;;;17.59;64.83
61506;BME280;47366;51.916;4.574;2022-10-16T13:51:20;101703.91;;;17.62;65.53
61506;BME280;47366;51.916;4.574;2022-10-16T13:53:46;101707.09;;;17.56;63.81
61506;BME280;47366;51.916;4.574;2022-10-16T13:56:17;101698.13;;;17.54;64.10
61506;BME280;47366;51.916;4.574;2022-10-16T13:58:43;101694.00;;;17.48;64.31
61506;BME280;47366;51.916;4.574;2022-10-16T14:01:19;101693.66;;;17.53;66.08
61506;BME280;47366;51.916;4.574;2022-10-16T14:03:46;101699.13;;;17.53;66.37
61506;BME280;47366;51.916;4.574;2022-10-16T14:06:15;101685.19;;;17.56;66.90
61506;BME280;47366;51.916;4.574;2022-10-16T14:08:44;101691.88;;;17.52;66.54
61506;BME280;47366;51.916;4.574;2022-10-16T14:11:11;101682.94;;;17.50;64.71
61506;BME280;47366;51.916;4.574;2022-10-16T14:13:44;101689.41;;;17.49;66.44
61506;BME280;47366;51.916;4.574;2022-10-16T14:16:34;101692.13;;;17.49;66.52
61506;BME280;47366;51.916;4.574;2022-10-16T14:19:01;101687.78;;;17.46;65.79
61506;BME280;47366;51.916;4.574;2022-10-16T14:21:28;101693.50;;;17.43;65.90
61506;BME280;47366;51.916;4.574;2022-10-16T14:23:54;101691.22;;;17.37;65.19
61506;BME280;47366;51.916;4.574;2022-10-16T14:26:23;101691.34;;;17.35;66.21
61506;BME280;47366;51.916;4.574;2022-10-16T14:29:01;101696.59;;;17.38;67.02
61506;BME280;47366;51.916;4.574;2022-10-16T14:31:33;101695.81;;;17.36;66.71
61506;BME280;47366;51.916;4.574;2022-10-16T14:34:01;101687.97;;;17.32;65.74